Time;durP1;ratioP1;P1;durP2;ratioP2;P2;SDS_P1;SDS_P2;PMS_P1;PMS_P2;Temp;Humidity;BMP_temperature;BMP_pressure;BME280_temperature;BME280_humidity;BME280_pressure;Samples;Min_cycle;Max_cycle;Signal;HPM_P1;HPM_P2
2023/02/21 02:14:19;;;;;;;5.50;5.20;;;8.00;43.10;;;;;;5000842;28;20458;-77
2023/02/21 02:16:56;;;;;;;5.63;5.20;;;8.00;46.30;;;;;;4995004;28;20492;-77
2023/02/21 02:20:20;;;;;;;4.50;4.27;;;8.00;44.70;;;;;;4992469;28;20465;-79
2023/02/21 02:23:26;;;;;;;4.60;4.40;;;8.00;46.70;;;;;;4960405;28;20959;-78
2023/02/21 02:26:17;;;;;;;5.27;4.77;;;8.00;49.50;;;;;;4994716;28;20474;-77
2023/02/21 02:29:04;;;;;;;4.83;4.53;;;8.20;49.30;;;;;;4993279;28;20475;-77
2023/02/21 02:31:46;;;;;;;5.73;5.43;;;8.00;62.00;;;;;;4995537;28;20942;-77
2023/02/21 02:34:43;;;;;;;5.23;4.73;;;8.00;50.20;;;;;;4990730;28;20496;-78
2023/02/21 02:37:18;;;;;;;5.10;4.80;;;8.10;51.30;;;;;;4993313;28;20569;-78
2023/02/21 02:39:51;;;;;;;5.00;4.77;;;8.00;49.60;;;;;;4992396;28;20823;-79
2023/02/21 02:42:36;;;;;;;5.23;4.83;;;8.00;50.70;;;;;;4991895;28;20463;-77
2023/02/21 02:45:12;;;;;;;5.10;4.90;;;7.80;49.20;;;;;;4993922;28;20465;-79
2023/02/21 02:47:44;;;;;;;5.50;5.20;;;7.90;52.10;;;;;;4997120;28;20508;-77
2023/02/21 02:50:16;;;;;;;4.60;4.40;;;7.90;51.00;;;;;;4993486;28;20452;-77
2023/02/21 02:52:52;;;;;;;5.17;4.97;;;7.80;51.80;;;;;;4993183;28;21638;-77
2023/02/21 02:55:36;;;;;;;4.73;4.53;;;7.90;54.50;;;;;;4996329;28;20451;-77
2023/02/21 02:58:05;;;;;;;4.60;4.40;;;7.80;53.60;;;;;;4995447;28;20462;-77
2023/02/21 03:00:37;;;;;;;5.20;5.00;;;7.70;52.00;;;;;;5001258;28;20478;-78
2023/02/21 03:03:24;;;;;;;5.40;5.07;;;7.60;54.20;;;;;;4998278;28;20454;-78
2023/02/21 03:06:13;;;;;;;4.60;4.40;;;7.70;58.40;;;;;;4997107;28;20571;-77
2023/02/21 03:08:51;;;;;;;5.80;5.40;;;7.60;57.50;;;;;;4995551;28;20471;-77
2023/02/21 03:11:22;;;;;;;5.00;4.80;;;7.70;60.40;;;;;;4995188;28;20467;-78
2023/02/21 03:13:57;;;;;;;5.50;5.27;;;7.60;57.90;;;;;;4997160;28;21029;-78
2023/02/21 03:16:28;;;;;;;6.10;5.67;;;7.60;62.00;;;;;;4992619;28;20479;-76
2023/02/21 03:19:01;;;;;;;5.20;5.00;;;7.60;63.80;;;;;;4995666;28;20449;-77
2023/02/21 03:21:36;;;;;;;5.50;5.20;;;7.70;81.40;;;;;;4998424;28;20456;-77
2023/02/21 03:24:06;;;;;;;5.57;5.23;;;7.60;65.90;;;;;;4997730;28;20470;-77
2023/02/21 03:26:37;;;;;;;5.33;5.03;;;7.70;67.00;;;;;;4997513;28;21034;-77
2023/02/21 03:29:05;;;;;;;5.40;5.20;;;7.70;66.20;;;;;;4998278;28;20963;-77
2023/02/21 03:31:37;;;;;;;5.27;5.03;;;7.70;66.00;;;;;;4998066;28;20595;-77
2023/02/21 03:34:05;;;;;;;6.60;6.10;;;7.60;65.90;;;;;;4993616;28;20663;-78
2023/02/21 03:36:36;;;;;;;5.47;5.27;;;7.60;67.70;;;;;;4997817;28;20568;-78
2023/02/21 03:39:05;;;;;;;6.43;5.80;;;7.50;66.70;;;;;;4998446;28;20522;-77
2023/02/21 03:41:33;;;;;;;5.60;5.40;;;7.60;68.10;;;;;;4996972;28;20492;-78
2023/02/21 03:44:01;;;;;;;5.50;5.30;;;7.50;68.80;;;;;;4992095;28;20475;-76
2023/02/21 03:46:29;;;;;;;5.60;5.30;;;7.50;71.40;;;;;;4995945;28;20605;-77
2023/02/21 03:48:57;;;;;;;5.53;5.33;;;7.50;70.20;;;;;;4994209;28;20461;-78
2023/02/21 03:51:25;;;;;;;5.30;5.00;;;7.40;70.60;;;;;;4990319;28;20476;-78
2023/02/21 03:53:55;;;;;;;5.93;5.63;;;7.40;75.30;;;;;;4993444;28;20455;-79
2023/02/21 03:56:23;;;;;;;5.63;5.33;;;7.50;76.80;;;;;;4990099;28;20473;-77
2023/02/21 03:59:00;;;;;;;5.53;5.33;;;7.60;77.70;;;;;;4989671;28;22258;-78
2023/02/21 04:01:28;;;;;;;5.80;5.27;;;7.40;76.40;;;;;;4993680;28;21010;-77
2023/02/21 04:03:56;;;;;;;6.33;5.83;;;7.40;75.90;;;;;;4995010;28;23218;-77
2023/02/21 04:06:25;;;;;;;12.37;10.50;;;7.40;77.90;;;;;;4998452;28;20482;-76
2023/02/21 04:08:53;;;;;;;5.97;5.67;;;7.40;82.20;;;;;;4993258;28;20452;-76
2023/02/21 04:11:23;;;;;;;5.63;5.43;;;7.40;83.10;;;;;;4999013;28;21036;-77
2023/02/21 04:13:51;;;;;;;6.57;6.03;;;7.30;80.30;;;;;;4988088;28;20558;-76
2023/02/21 04:16:19;;;;;;;6.30;6.00;;;7.30;95.20;;;;;;4995237;28;20607;-76
2023/02/21 04:18:47;;;;;;;6.90;6.40;;;7.30;85.80;;;;;;4991409;28;20448;-77
2023/02/21 04:21:17;;;;;;;6.47;6.17;;;7.30;86.80;;;;;;4991827;28;20621;-76
2023/02/21 04:23:45;;;;;;;6.17;5.83;;;7.40;86.30;;;;;;4992818;28;20550;-77
2023/02/21 04:26:14;;;;;;;6.87;6.20;;;7.30;85.40;;;;;;4991964;28;20532;-76
2023/02/21 04:28:43;;;;;;;6.97;6.53;;;7.10;86.40;;;;;;4989776;28;20465;-77
2023/02/21 04:31:11;;;;;;;6.33;5.83;;;7.20;90.20;;;;;;4993637;28;20536;-77
2023/02/21 04:33:40;;;;;;;5.80;5.50;;;7.30;89.80;;;;;;4991089;28;20469;-75
2023/02/21 04:36:08;;;;;;;6.10;5.70;;;7.20;89.60;;;;;;4994130;28;20478;-77
2023/02/21 04:38:37;;;;;;;6.53;6.07;;;7.20;90.80;;;;;;4992407;28;20467;-78
2023/02/21 04:41:06;;;;;;;6.83;6.47;;;7.20;91.30;;;;;;4993763;28;20466;-78
2023/02/21 04:43:34;;;;;;;7.60;6.73;;;7.20;91.20;;;;;;4990940;28;20966;-79
2023/02/21 04:46:04;;;;;;;6.97;6.50;;;7.20;91.60;;;;;;4991016;28;21094;-77
2023/02/21 04:48:32;;;;;;;5.57;5.37;;;7.10;91.40;;;;;;4990824;28;20470;-78
2023/02/21 04:51:01;;;;;;;6.70;6.30;;;7.10;91.40;;;;;;4994451;28;20454;-77
2023/02/21 04:53:42;;;;;;;7.83;7.00;;;7.20;94.20;;;;;;4993378;28;20528;-77
2023/02/21 04:56:11;;;;;;;7.27;6.77;;;7.10;93.60;;;;;;4997325;28;20515;-78
2023/02/21 04:58:39;;;;;;;7.00;6.50;;;7.10;94.50;;;;;;4996420;28;20516;-78
2023/02/21 05:01:15;;;;;;;7.10;6.60;;;7.10;95.30;;;;;;4990830;28;20462;-79
2023/02/21 05:03:44;;;;;;;7.00;6.60;;;7.10;95.10;;;;;;4996228;28;20468;-78
2023/02/21 05:06:18;;;;;;;6.53;6.03;;;7.00;95.00;;;;;;4998077;28;20476;-77
2023/02/21 05:08:46;;;;;;;6.30;6.00;;;7.00;95.00;;;;;;4996940;28;20546;-78
2023/02/21 05:11:14;;;;;;;7.60;7.00;;;7.10;95.20;;;;;;4999071;28;20459;-78
2023/02/21 05:13:43;;;;;;;7.27;6.60;;;7.10;95.20;;;;;;5000691;28;20455;-78
2023/02/21 05:16:12;;;;;;;6.63;6.33;;;7.00;95.20;;;;;;4998455;28;20479;-78
2023/02/21 05:18:44;;;;;;;6.40;6.10;;;6.80;95.90;;;;;;4998951;28;20462;-77
2023/02/21 05:21:12;;;;;;;6.77;6.23;;;6.80;98.40;;;;;;5002246;28;20461;-76
2023/02/21 05:23:53;;;;;;;6.67;6.37;;;6.80;99.80;;;;;;4997987;28;20458;-76
2023/02/21 05:26:23;;;;;;;6.20;5.80;;;6.90;99.50;;;;;;4993510;28;21041;-77
2023/02/21 05:28:51;;;;;;;6.33;5.80;;;7.00;99.70;;;;;;4995898;28;20444;-76
2023/02/21 05:31:20;;;;;;;6.83;6.37;;;7.00;99.20;;;;;;4997423;28;20442;-77
2023/02/21 05:33:50;;;;;;;6.80;6.40;;;6.90;99.90;;;;;;4997352;28;20468;-77
2023/02/21 05:36:18;;;;;;;6.40;6.00;;;6.90;99.90;;;;;;4996275;28;20691;-77
2023/02/21 05:38:47;;;;;;;6.83;6.33;;;6.90;99.90;;;;;;4997376;28;20545;-78
2023/02/21 05:41:16;;;;;;;6.27;5.90;;;7.00;99.90;;;;;;4994990;28;20453;-77
2023/02/21 05:43:45;;;;;;;6.50;6.13;;;6.90;99.90;;;;;;4997872;28;20560;-77
2023/02/21 05:46:22;;;;;;;6.80;6.50;;;6.90;99.90;;;;;;4996427;28;20475;-77
2023/02/21 05:48:52;;;;;;;6.10;5.80;;;6.90;99.90;;;;;;5000445;28;20508;-77
2023/02/21 05:51:21;;;;;;;6.80;6.33;;;6.90;99.90;;;;;;4996669;28;21035;-81
2023/02/21 05:53:50;;;;;;;6.47;6.17;;;6.80;99.90;;;;;;5000459;28;20491;-77
2023/02/21 05:56:20;;;;;;;7.20;5.97;;;6.80;99.90;;;;;;4998009;28;20602;-76
2023/02/21 05:58:48;;;;;;;5.80;5.50;;;6.70;99.90;;;;;;4996247;28;20469;-76
2023/02/21 06:01:16;;;;;;;6.00;5.50;;;6.80;99.90;;;;;;5000836;28;21030;-79
2023/02/21 06:03:44;;;;;;;6.00;5.70;;;6.80;99.90;;;;;;5001696;28;20445;-77
2023/02/21 06:06:14;;;;;;;6.97;6.27;;;6.70;99.90;;;;;;5000979;28;20554;-76
2023/02/21 06:08:44;;;;;;;6.03;5.73;;;6.60;99.90;;;;;;4998319;28;21493;-75
2023/02/21 06:11:12;;;;;;;5.90;5.60;;;6.60;99.90;;;;;;4995745;28;20494;-77
2023/02/21 06:13:41;;;;;;;5.80;5.47;;;6.70;99.90;;;;;;4995891;28;20535;-75
2023/02/21 06:16:09;;;;;;;6.67;6.20;;;6.80;99.90;;;;;;4994435;28;20910;-77
2023/02/21 06:18:38;;;;;;;5.97;5.60;;;6.80;99.90;;;;;;4993351;28;20462;-76
2023/02/21 06:21:06;;;;;;;6.50;6.10;;;6.70;99.90;;;;;;4994141;28;20489;-76
2023/02/21 06:23:35;;;;;;;6.88;6.55;;;6.60;99.90;;;;;;4995210;28;21189;-77
2023/02/21 06:26:04;;;;;;;9.30;8.40;;;6.40;99.90;;;;;;4994596;28;20303;-78
2023/02/21 06:28:32;;;;;;;8.80;7.30;;;6.50;99.90;;;;;;4993138;28;20460;-77
2023/02/21 06:31:01;;;;;;;8.00;7.50;;;6.60;99.90;;;;;;4995617;28;21151;-77
2023/02/21 06:33:29;;;;;;;7.30;6.90;;;6.70;99.90;;;;;;4995178;28;20564;-76
2023/02/21 06:35:57;;;;;;;7.73;7.13;;;6.70;99.90;;;;;;4995344;28;21018;-77
2023/02/21 06:38:25;;;;;;;7.60;7.00;;;6.70;99.90;;;;;;4994617;28;20454;-77
2023/02/21 06:40:54;;;;;;;7.03;6.53;;;6.70;99.90;;;;;;4994060;28;20459;-76
2023/02/21 06:43:23;;;;;;;6.70;6.40;;;6.70;99.90;;;;;;4994070;28;20465;-77
2023/02/21 06:45:51;;;;;;;6.37;5.97;;;6.80;99.90;;;;;;4992601;28;20491;-76
2023/02/21 06:48:19;;;;;;;6.17;5.60;;;6.70;99.90;;;;;;5000538;28;20459;-75
2023/02/21 06:50:47;;;;;;;5.67;5.20;;;6.70;99.90;;;;;;4999813;28;20459;-76
2023/02/21 06:53:15;;;;;;;6.90;6.20;;;6.70;99.90;;;;;;4995971;28;20580;-75
2023/02/21 06:55:43;;;;;;;6.23;5.83;;;6.80;99.90;;;;;;4994936;28;20482;-75
2023/02/21 06:58:13;;;;;;;6.33;5.80;;;6.80;99.90;;;;;;4998202;28;20475;-74
2023/02/21 07:00:41;;;;;;;14.90;13.40;;;6.80;99.90;;;;;;4996356;28;20456;-75
2023/02/21 07:03:09;;;;;;;8.33;7.57;;;6.90;99.90;;;;;;4999216;28;20482;-77
2023/02/21 07:05:37;;;;;;;25.53;17.37;;;6.90;99.90;;;;;;4991350;28;20503;-77
2023/02/21 07:08:06;;;;;;;11.70;9.53;;;6.90;99.90;;;;;;4998942;28;20468;-76
2023/02/21 07:10:34;;;;;;;9.30;8.50;;;7.10;99.90;;;;;;4999133;28;20462;-76
2023/02/21 07:13:02;;;;;;;6.70;6.40;;;7.30;99.90;;;;;;4996246;28;21002;-76
2023/02/21 07:15:31;;;;;;;7.00;6.57;;;7.30;99.90;;;;;;4998128;28;20461;-75
2023/02/21 07:18:00;;;;;;;6.30;6.00;;;7.30;99.90;;;;;;4998954;28;20458;-76
2023/02/21 07:20:28;;;;;;;6.23;5.93;;;7.20;99.90;;;;;;4988962;28;20828;-76
2023/02/21 07:22:56;;;;;;;6.57;6.13;;;7.20;99.90;;;;;;4996508;28;20970;-77
2023/02/21 07:25:24;;;;;;;6.83;6.30;;;7.30;99.90;;;;;;4994784;28;20468;-77
2023/02/21 07:27:53;;;;;;;6.50;6.07;;;7.30;99.90;;;;;;4993376;28;20811;-75
2023/02/21 07:30:21;;;;;;;7.33;6.73;;;7.40;99.90;;;;;;4997591;28;20514;-74
2023/02/21 07:32:50;;;;;;;6.90;6.50;;;7.40;99.90;;;;;;4993497;28;20533;-76
2023/02/21 07:35:18;;;;;;;6.63;6.30;;;7.50;99.90;;;;;;4992609;28;20716;-75
2023/02/21 07:37:47;;;;;;;6.50;6.20;;;7.60;99.90;;;;;;4994619;28;20465;-76
2023/02/21 07:40:15;;;;;;;7.40;6.70;;;7.70;99.90;;;;;;4994131;28;20587;-77
2023/02/21 07:42:44;;;;;;;6.67;6.47;;;7.70;99.90;;;;;;4990955;28;20565;-75
2023/02/21 07:45:12;;;;;;;7.30;6.90;;;7.80;99.90;;;;;;4990265;28;21006;-77
2023/02/21 07:47:42;;;;;;;8.17;7.67;;;7.90;99.90;;;;;;4992474;28;20491;-76
2023/02/21 07:50:12;;;;;;;7.70;7.30;;;8.10;99.90;;;;;;4991963;28;20464;-77
2023/02/21 07:52:40;;;;;;;7.03;6.63;;;8.40;99.90;;;;;;4988935;28;21043;-77
2023/02/21 07:55:10;;;;;;;8.27;7.87;;;8.60;99.90;;;;;;4993411;28;20480;-78
2023/02/21 07:57:39;;;;;;;8.50;7.63;;;8.90;99.90;;;;;;4989736;28;20476;-79
2023/02/21 08:00:08;;;;;;;8.13;7.63;;;9.10;99.90;;;;;;4990554;28;20464;-78
2023/02/21 08:02:36;;;;;;;10.20;9.17;;;9.40;99.90;;;;;;4999169;28;21265;-78
2023/02/21 08:05:05;;;;;;;8.13;7.73;;;9.70;99.90;;;;;;4992903;28;20458;-78
2023/02/21 08:07:35;;;;;;;10.63;9.60;;;9.90;99.90;;;;;;4991570;28;20473;-77
2023/02/21 08:10:03;;;;;;;9.33;8.83;;;10.10;99.90;;;;;;4993514;28;20979;-78
2023/02/21 08:12:31;;;;;;;10.37;9.67;;;10.50;99.90;;;;;;4996218;28;20454;-77
2023/02/21 08:14:59;;;;;;;9.53;9.03;;;10.80;99.90;;;;;;4995627;28;20551;-79
2023/02/21 08:17:27;;;;;;;9.87;9.13;;;11.30;99.90;;;;;;4992700;28;20488;-77
2023/02/21 08:19:56;;;;;;;9.30;8.80;;;11.60;99.90;;;;;;4990782;28;20542;-78
2023/02/21 08:22:24;;;;;;;9.87;9.37;;;11.90;99.90;;;;;;4994431;28;20561;-77
2023/02/21 08:24:54;;;;;;;9.67;9.10;;;12.20;99.90;;;;;;4996461;28;21341;-78
2023/02/21 08:27:22;;;;;;;9.60;9.00;;;12.50;99.90;;;;;;4997201;28;20483;-78
2023/02/21 08:29:51;;;;;;;9.90;9.30;;;12.80;99.90;;;;;;4992082;28;20960;-79
2023/02/21 08:32:20;;;;;;;11.03;10.30;;;13.10;99.90;;;;;;4995831;28;20461;-78
2023/02/21 08:34:49;;;;;;;11.03;10.30;;;13.50;99.90;;;;;;4995413;28;20548;-77
2023/02/21 08:37:18;;;;;;;10.17;9.47;;;13.90;99.90;;;;;;4998850;28;21008;-78
2023/02/21 08:39:47;;;;;;;9.63;9.13;;;14.20;99.90;;;;;;4997086;28;20501;-78
2023/02/21 08:42:16;;;;;;;9.93;9.33;;;14.60;99.90;;;;;;4996477;28;20462;-77
2023/02/21 08:44:45;;;;;;;9.43;9.03;;;14.90;99.90;;;;;;4995927;28;20454;-76
2023/02/21 08:47:15;;;;;;;10.57;9.87;;;15.40;99.90;;;;;;4994483;28;20554;-78
2023/02/21 08:49:46;;;;;;;10.07;9.50;;;15.80;99.90;;;;;;4995597;28;20478;-79
2023/02/21 08:52:15;;;;;;;9.43;8.90;;;16.10;99.90;;;;;;4996816;28;20449;-79
2023/02/21 08:54:44;;;;;;;10.73;10.03;;;16.50;99.90;;;;;;4993397;28;20583;-78
2023/02/21 08:57:13;;;;;;;10.13;9.53;;;16.90;99.90;;;;;;4998423;28;20490;-79
2023/02/21 08:59:43;;;;;;;9.60;9.10;;;17.30;99.90;;;;;;5001184;28;21027;-78
2023/02/21 09:02:15;;;;;;;9.40;8.80;;;17.60;99.90;;;;;;4997259;28;20467;-79
2023/02/21 09:04:44;;;;;;;9.77;9.33;;;18.10;99.90;;;;;;5001864;28;20469;-79
2023/02/21 09:07:13;;;;;;;10.97;10.37;;;18.60;99.90;;;;;;5000337;28;20458;-79
2023/02/21 09:09:41;;;;;;;10.20;9.60;;;19.10;99.90;;;;;;4997117;28;20476;-78
2023/02/21 09:12:09;;;;;;;10.60;9.80;;;19.50;99.90;;;;;;4994263;28;20460;-78
2023/02/21 09:14:39;;;;;;;9.40;8.97;;;20.00;99.90;;;;;;4999052;28;20850;-77
2023/02/21 09:17:12;;;;;;;8.90;8.20;;;20.40;99.90;;;;;;5014081;28;20529;-78
2023/02/21 09:19:41;;;;;;;9.43;8.87;;;20.60;99.90;;;;;;4998197;28;20471;-79
2023/02/21 09:22:09;;;;;;;9.43;8.97;;;20.90;99.90;;;;;;4997312;28;20453;-78
2023/02/21 09:24:38;;;;;;;8.67;8.30;;;21.20;99.90;;;;;;4995917;28;20446;-78
2023/02/21 09:27:06;;;;;;;7.60;7.10;;;21.50;99.90;;;;;;4992945;28;21008;-78
2023/02/21 09:29:36;;;;;;;7.53;7.23;;;21.80;99.90;;;;;;4993782;28;20469;-77
2023/02/21 09:32:15;;;;;;;8.13;7.73;;;21.70;99.90;;;;;;4995588;28;21056;-75
2023/02/21 09:34:43;;;;;;;8.20;7.70;;;22.20;99.90;;;;;;4995583;28;20482;-79
2023/02/21 09:37:11;;;;;;;7.43;7.13;;;22.60;99.90;;;;;;4995916;28;20477;-79
2023/02/21 09:39:39;;;;;;;7.87;7.27;;;23.00;99.90;;;;;;4996139;28;20458;-79
2023/02/21 09:42:10;;;;;;;8.40;7.83;;;22.80;99.90;;;;;;5001297;28;20462;-78
2023/02/21 09:44:38;;;;;;;7.73;7.43;;;23.20;99.90;;;;;;4998875;28;20507;-80
2023/02/21 09:47:07;;;;;;;7.37;6.97;;;23.80;99.90;;;;;;4999734;28;20469;-79
2023/02/21 09:49:40;;;;;;;8.27;7.77;;;24.00;99.90;;;;;;4997113;28;21220;-79
2023/02/21 09:52:18;;;;;;;7.73;7.30;;;24.50;99.90;;;;;;4997646;28;20460;-78
2023/02/21 09:54:51;;;;;;;8.57;8.07;;;24.70;99.90;;;;;;4994030;28;20479;-80
2023/02/21 09:57:19;;;;;;;9.33;8.50;;;25.30;99.90;;;;;;4993948;28;20473;-80
2023/02/21 09:59:48;;;;;;;9.00;8.20;;;25.60;99.90;;;;;;4994481;28;20447;-78
2023/02/21 10:02:30;;;;;;;7.93;7.37;;;25.70;99.90;;;;;;4993330;28;20480;-78
2023/02/21 10:05:07;;;;;;;6.90;6.70;;;25.50;99.90;;;;;;4997278;28;20485;-76
2023/02/21 10:07:44;;;;;;;8.00;7.70;;;25.40;99.90;;;;;;4998235;28;20842;-79
2023/02/21 10:10:17;;;;;;;6.93;6.40;;;25.30;99.90;;;;;;4998984;28;20523;-79
2023/02/21 10:12:53;;;;;;;6.50;6.30;;;25.20;99.90;;;;;;4996322;28;20966;-80
2023/02/21 10:15:40;;;;;;;7.23;6.80;;;25.10;99.90;;;;;;4993724;28;20572;-81
2023/02/21 10:18:19;;;;;;;5.63;5.33;;;25.10;99.90;;;;;;4993877;28;20453;-78
2023/02/21 10:20:53;;;;;;;7.33;6.70;;;25.40;99.90;;;;;;4991730;28;20457;-79
2023/02/21 10:23:27;;;;;;;5.90;5.60;;;25.80;99.90;;;;;;4997233;28;20453;-79
2023/02/21 10:25:58;;;;;;;5.60;5.10;;;26.30;99.90;;;;;;4994614;28;20473;-82
2023/02/21 10:28:27;;;;;;;6.27;6.07;;;26.80;99.90;;;;;;4993892;28;20468;-79
2023/02/21 10:30:58;;;;;;;5.23;5.13;;;26.90;99.90;;;;;;4997230;28;20453;-78
2023/02/21 10:33:27;;;;;;;6.00;5.80;;;27.50;99.90;;;;;;4992656;28;20485;-79
2023/02/21 10:35:57;;;;;;;7.73;7.43;;;28.20;99.90;;;;;;4993300;28;21202;-81
2023/02/21 10:38:26;;;;;;;7.07;6.77;;;29.00;99.90;;;;;;4994562;28;21051;-80
2023/02/21 10:40:57;;;;;;;7.07;6.67;;;29.60;99.90;;;;;;4995902;28;20540;-79
2023/02/21 10:43:31;;;;;;;6.50;6.30;;;30.20;99.90;;;;;;4994733;28;20470;-80
2023/02/21 10:46:04;;;;;;;6.70;6.40;;;30.90;99.90;;;;;;4997039;28;20507;-78
2023/02/21 10:48:36;;;;;;;5.40;5.20;;;31.60;99.90;;;;;;4997463;28;20465;-82
2023/02/21 10:51:11;;;;;;;6.00;5.77;;;32.50;99.90;;;;;;4993808;28;20457;-79
2023/02/21 10:53:41;;;;;;;4.53;4.33;;;33.00;99.90;;;;;;4993397;28;20539;-80
2023/02/21 10:56:30;;;;;;;4.40;4.20;;;33.30;99.90;;;;;;4999235;28;20538;-79
2023/02/21 10:59:00;;;;;;;4.27;4.07;;;33.90;99.90;;;;;;4997879;28;20510;-79
2023/02/21 11:01:38;;;;;;;4.70;4.50;;;33.80;99.90;;;;;;4999987;28;20448;-79
2023/02/21 11:04:22;;;;;;;4.10;3.90;;;34.20;99.90;;;;;;4999242;28;20485;-79
2023/02/21 11:06:54;;;;;;;3.90;3.70;;;34.40;99.90;;;;;;4996261;28;20502;-79
2023/02/21 11:09:33;;;;;;;3.63;3.33;;;34.70;99.90;;;;;;5000836;28;20457;-79
2023/02/21 11:12:05;;;;;;;2.30;2.20;;;34.30;99.90;;;;;;4999977;28;20453;-78
2023/02/21 11:14:33;;;;;;;2.73;2.63;;;34.10;99.90;;;;;;5003512;28;20469;-78
2023/02/21 11:17:15;;;;;;;2.93;2.70;;;33.40;99.90;;;;;;4998795;28;20516;-80
2023/02/21 11:19:49;;;;;;;2.40;2.40;;;33.80;99.90;;;;;;5000586;28;20456;-78
2023/02/21 11:22:21;;;;;;;2.50;2.40;;;34.10;99.90;;;;;;4998763;28;20523;-81
2023/02/21 11:24:59;;;;;;;2.73;2.63;;;34.00;99.90;;;;;;4997088;28;20500;-79
2023/02/21 11:27:30;;;;;;;2.60;2.50;;;34.10;99.90;;;;;;5001143;28;20477;-79
2023/02/21 11:30:00;;;;;;;2.03;1.97;;;33.90;99.90;;;;;;4997475;28;20456;-80
2023/02/21 11:32:32;;;;;;;1.90;1.80;;;33.10;99.90;;;;;;4997589;28;20453;-78
2023/02/21 11:35:03;;;;;;;1.60;1.60;;;33.40;99.90;;;;;;4996827;28;20469;-81
2023/02/21 11:37:33;;;;;;;2.00;1.90;;;33.60;99.90;;;;;;5000627;28;20477;-80
2023/02/21 11:40:04;;;;;;;2.30;2.03;;;33.30;99.90;;;;;;4995915;28;20933;-80
2023/02/21 11:42:33;;;;;;;1.80;1.70;;;31.00;99.90;;;;;;4995228;28;20552;-80
2023/02/21 11:45:18;;;;;;;1.80;1.70;;;28.20;99.90;;;;;;4993724;28;20459;-80
2023/02/21 11:47:53;;;;;;;1.93;1.57;;;26.40;99.90;;;;;;4996566;28;20477;-81
2023/02/21 11:50:25;;;;;;;1.67;1.57;;;25.20;99.90;;;;;;4995686;28;20966;-80
2023/02/21 11:53:02;;;;;;;1.90;1.80;;;24.20;99.90;;;;;;4993431;28;21083;-80
2023/02/21 11:55:30;;;;;;;1.63;1.53;;;23.10;97.60;;;;;;4992544;28;20604;-79
2023/02/21 11:58:10;;;;;;;1.60;1.60;;;22.60;93.70;;;;;;4991297;28;20459;-79
2023/02/21 12:01:00;;;;;;;1.77;1.67;;;22.30;92.70;;;;;;4992378;28;21001;-80
2023/02/21 12:04:01;;;;;;;1.57;1.50;;;22.30;92.00;;;;;;4999508;28;20818;-81
2023/02/21 12:06:37;;;;;;;1.70;1.60;;;21.40;80.80;;;;;;4984591;28;21147;-82
2023/02/21 12:09:10;;;;;;;1.40;1.40;;;21.20;78.40;;;;;;4995323;28;20473;-80
2023/02/21 12:11:48;;;;;;;1.53;1.43;;;21.30;80.00;;;;;;4992175;28;20664;-80
2023/02/21 12:14:31;;;;;;;1.57;1.57;;;21.50;82.90;;;;;;4996273;28;20481;-80
2023/02/21 12:17:11;;;;;;;1.60;1.50;;;21.30;80.50;;;;;;4996153;28;20525;-77
2023/02/21 12:20:07;;;;;;;1.60;1.50;;;21.30;79.40;;;;;;4998550;28;20458;-78
2023/02/21 12:22:48;;;;;;;1.50;1.40;;;21.50;82.50;;;;;;5000128;28;20459;-78
2023/02/21 12:25:23;;;;;;;1.60;1.50;;;21.50;83.50;;;;;;4997767;28;20481;-80
2023/02/21 12:27:57;;;;;;;1.50;1.50;;;20.80;72.40;;;;;;4995798;28;20558;-80
2023/02/21 12:31:04;;;;;;;1.60;1.50;;;20.70;71.00;;;;;;4996580;28;20478;-78
2023/02/21 12:33:42;;;;;;;1.60;1.50;;;20.60;68.10;;;;;;5001463;28;20451;-78
2023/02/21 12:36:39;;;;;;;1.70;1.60;;;20.20;61.80;;;;;;5002363;28;20496;-78
2023/02/21 12:39:31;;;;;;;1.57;1.47;;;20.60;69.40;;;;;;4999351;28;20473;-79
2023/02/21 12:42:15;;;;;;;1.40;1.40;;;20.70;70.70;;;;;;5006395;28;20447;-77
2023/02/21 12:44:54;;;;;;;3.70;1.30;;;20.80;70.70;;;;;;5005677;28;20455;-77
2023/02/21 12:47:28;;;;;;;1.30;1.30;;;20.80;72.40;;;;;;5003416;28;20533;-78
2023/02/21 12:50:03;;;;;;;1.20;1.20;;;20.70;70.40;;;;;;5009524;28;20461;-79
2023/02/21 12:52:36;;;;;;;1.30;1.30;;;20.40;66.30;;;;;;5007639;28;20464;-78
2023/02/21 12:55:09;;;;;;;1.50;1.40;;;20.50;67.30;;;;;;5000876;28;20457;-80
2023/02/21 12:57:59;;;;;;;1.73;1.63;;;20.80;72.90;;;;;;5003269;28;20489;-79
2023/02/21 13:00:33;;;;;;;1.50;1.40;;;21.00;76.10;;;;;;5004257;28;20461;-78
2023/02/21 13:03:17;;;;;;;1.60;1.50;;;21.10;78.50;;;;;;5003108;28;20468;-78
2023/02/21 13:05:48;;;;;;;2.33;1.73;;;20.90;75.20;;;;;;5008946;28;20453;-78
2023/02/21 13:08:21;;;;;;;1.73;1.63;;;21.10;78.90;;;;;;5009302;28;20533;-80
2023/02/21 13:10:55;;;;;;;1.50;1.50;;;21.00;77.10;;;;;;5010922;28;20533;-79
2023/02/21 13:13:31;;;;;;;1.57;1.47;;;21.10;77.80;;;;;;5010135;28;20464;-79
2023/02/21 13:16:02;;;;;;;1.50;1.50;;;21.10;76.60;;;;;;5005524;28;20484;-78
2023/02/21 13:18:34;;;;;;;1.93;1.70;;;20.80;73.40;;;;;;5006749;28;21204;-79
2023/02/21 13:21:16;;;;;;;1.80;1.70;;;20.80;73.00;;;;;;5006412;28;21035;-79
2023/02/21 13:24:11;;;;;;;1.50;1.50;;;20.60;69.70;;;;;;5007168;28;20853;-80
2023/02/21 13:26:50;;;;;;;1.60;1.60;;;20.70;72.90;;;;;;5008005;28;20537;-79
2023/02/21 13:29:24;;;;;;;1.53;1.50;;;20.70;73.40;;;;;;4999548;28;20462;-78
2023/02/21 13:31:59;;;;;;;1.90;1.60;;;20.90;75.20;;;;;;5006485;28;20449;-78
2023/02/21 13:34:31;;;;;;;1.50;1.50;;;20.90;76.40;;;;;;5002389;28;20463;-77
2023/02/21 13:37:05;;;;;;;1.70;1.70;;;20.90;76.80;;;;;;5010478;28;20486;-78
2023/02/21 13:39:36;;;;;;;1.87;1.87;;;20.80;74.70;;;;;;5004511;28;20572;-80
2023/02/21 13:42:08;;;;;;;1.80;1.70;;;20.80;74.40;;;;;;5003534;28;20454;-79
2023/02/21 13:44:40;;;;;;;1.50;1.40;;;20.80;75.40;;;;;;5019851;28;20451;-79
2023/02/21 13:47:12;;;;;;;1.80;1.70;;;20.70;73.00;;;;;;5000885;28;20560;-78
2023/02/21 13:49:52;;;;;;;1.80;1.70;;;20.70;73.30;;;;;;5030700;28;20457;-80
2023/02/21 13:52:57;;;;;;;2.00;1.90;;;20.70;72.20;;;;;;4997261;28;20452;-78
2023/02/21 13:55:34;;;;;;;1.40;1.40;;;20.50;69.80;;;;;;4997570;28;20453;-81
2023/02/21 13:58:45;;;;;;;1.93;1.80;;;20.40;68.10;;;;;;4994644;28;20489;-79
2023/02/21 14:01:31;;;;;;;1.50;1.50;;;20.40;68.70;;;;;;4995957;28;20495;-80
2023/02/21 14:03:59;;;;;;;1.70;1.60;;;20.40;69.10;;;;;;4998856;28;20464;-78
2023/02/21 14:06:36;;;;;;;1.50;1.43;;;20.50;72.10;;;;;;4999138;28;20483;-79
2023/02/21 14:09:13;;;;;;;1.83;1.70;;;20.50;69.80;;;;;;4996217;28;20478;-77
2023/02/21 14:11:47;;;;;;;1.53;1.53;;;20.30;65.50;;;;;;5001865;28;20527;-78
2023/02/21 14:14:25;;;;;;;1.67;1.60;;;20.00;59.70;;;;;;5002479;28;20455;-78
2023/02/21 14:17:02;;;;;;;2.07;1.63;;;19.90;59.30;;;;;;5001190;28;20516;-79
2023/02/21 14:19:36;;;;;;;1.63;1.60;;;20.00;61.30;;;;;;4996693;28;20445;-78
2023/02/21 14:22:11;;;;;;;2.00;1.90;;;20.10;63.50;;;;;;4995897;28;20503;-78
2023/02/21 14:24:43;;;;;;;1.90;1.80;;;20.30;65.90;;;;;;4998317;28;21270;-78
2023/02/21 14:27:32;;;;;;;1.53;1.53;;;20.20;66.90;;;;;;4991194;28;20545;-78
2023/02/21 14:30:33;;;;;;;1.40;1.40;;;20.30;67.10;;;;;;4992144;28;20450;-79
2023/02/21 14:33:18;;;;;;;1.60;1.60;;;20.40;69.70;;;;;;4932924;28;20491;-79
2023/02/21 14:35:54;;;;;;;1.60;1.60;;;20.50;70.10;;;;;;4991761;28;20481;-78
2023/02/21 14:38:24;;;;;;;1.50;1.40;;;20.50;70.10;;;;;;4991763;28;20478;-79
2023/02/21 14:41:05;;;;;;;1.60;1.50;;;20.50;70.10;;;;;;4991721;28;20453;-78
2023/02/21 14:43:56;;;;;;;2.10;1.60;;;20.40;68.50;;;;;;4994773;28;21241;-78
2023/02/21 14:47:05;;;;;;;2.30;1.50;;;20.30;69.00;;;;;;4994543;28;21070;-79
2023/02/21 14:49:55;;;;;;;1.80;1.70;;;20.30;66.40;;;;;;4993520;28;20468;-77
2023/02/21 14:52:45;;;;;;;1.77;1.60;;;20.00;61.10;;;;;;4994909;28;20472;-79
2023/02/21 14:55:36;;;;;;;1.50;1.40;;;19.80;58.60;;;;;;4992654;28;21515;-78
2023/02/21 14:58:52;;;;;;;2.27;1.60;;;19.80;58.60;;;;;;4989924;28;20555;-77
2023/02/21 15:01:40;;;;;;;1.50;1.40;;;19.90;59.30;;;;;;4970737;28;20571;-79
2023/02/21 15:04:18;;;;;;;1.33;1.33;;;19.80;57.90;;;;;;4997542;28;20457;-79
2023/02/21 15:07:03;;;;;;;1.40;1.40;;;19.70;58.20;;;;;;4995500;28;20509;-78
2023/02/21 15:09:31;;;;;;;1.60;1.50;;;19.80;59.20;;;;;;5001118;28;20469;-78
2023/02/21 15:12:01;;;;;;;1.40;1.40;;;19.70;57.80;;;;;;4996879;28;20504;-77
2023/02/21 15:14:35;;;;;;;1.47;1.47;;;19.60;55.80;;;;;;5012403;28;20457;-78
2023/02/21 15:17:13;;;;;;;1.43;1.33;;;19.60;56.60;;;;;;4996492;28;20485;-77
2023/02/21 15:19:41;;;;;;;1.47;1.47;;;19.70;57.30;;;;;;4998425;28;20446;-77
2023/02/21 15:22:18;;;;;;;1.50;1.50;;;19.70;57.70;;;;;;4995430;28;20461;-77
2023/02/21 15:25:15;;;;;;;1.75;1.40;;;19.70;58.00;;;;;;4998633;28;20490;-77
2023/02/21 15:28:00;;;;;;;1.50;1.40;;;19.80;58.70;;;;;;4976108;28;20226;-78
2023/02/21 15:30:40;;;;;;;1.60;1.50;;;19.70;56.90;;;;;;4998061;28;20557;-77
2023/02/21 15:33:15;;;;;;;2.03;1.90;;;19.60;55.60;;;;;;4996701;28;20457;-78
2023/02/21 15:35:50;;;;;;;1.80;1.70;;;19.50;54.70;;;;;;4997205;28;20557;-80
2023/02/21 15:38:27;;;;;;;1.57;1.57;;;19.50;55.60;;;;;;5002838;28;20877;-79